Time,TemperatureF,DewpointF,PressureIn,WindDirection,WindDirectionDegrees,WindSpeedMPH,WindSpeedGustMPH,Humidity,HourlyPrecipIn,Conditions,Clouds,dailyrainin,SoftwareType,DateUTC
2013-05-15 00:06:00,41.6,33.0,30.10,SW,221,0.0,0.0,71,0.00,,,0.00,weatherlink.com 1.10,2013-05-15 04:06:00,
2013-05-15 00:22:00,40.8,32.0,30.10,SW,221,0.0,0.0,72,0.00,,,0.00,weatherlink.com 1.10,2013-05-15 04:22:00,
2013-05-15 00:37:00,40.1,32.0,30.10,SW,221,0.0,0.0,72,0.00,,,0.00,weatherlink.com 1.10,2013-05-15 04:37:00,
2013-05-15 00:52:00,39.7,32.0,30.09,SW,221,0.0,0.0,73,0.00,,,0.00,weatherlink.com 1.10,2013-05-15 04:52:00,
2013-05-15 01:08:00,39.1,31.0,30.09,SW,221,0.0,0.0,74,0.00,,,0.00,weatherlink.com 1.10,2013-05-15 05:08:00,
2013-05-15 01:23:00,38.9,32.0,30.09,SW,221,0.0,0.0,76,0.00,,,0.00,weatherlink.com 1.10,2013-05-15 05:23:00,
2013-05-15 01:39:00,38.8,33.0,30.09,SW,221,0.0,0.0,79,0.00,,,0.00,weatherlink.com 1.10,2013-05-15 05:39:00,
2013-05-15 01:53:00,38.6,33.0,30.09,SW,221,0.0,0.0,81,0.00,,,0.00,weatherlink.com 1.10,2013-05-15 05:53:00,
2013-05-15 02:08:00,38.2,33.0,30.09,SW,221,0.0,0.0,82,0.00,,,0.00,weatherlink.com 1.10,2013-05-15 06:08:00,
2013-05-15 02:25:00,37.9,33.0,30.08,SW,221,0.0,0.0,83,0.00,,,0.00,weatherlink.com 1.10,2013-05-15 06:25:00,
2013-05-15 02:40:00,37.5,33.0,30.08,SW,221,0.0,0.0,84,0.00,,,0.00,weatherlink.com 1.10,2013-05-15 06:40:00,
2013-05-15 02:55:00,37.8,34.0,30.07,SW,221,0.0,0.0,86,0.00,,,0.00,weatherlink.com 1.10,2013-05-15 06:55:00,
2013-05-15 03:10:00,37.5,34.0,30.07,SW,221,0.0,0.0,86,0.00,,,0.00,weatherlink.com 1.10,2013-05-15 07:10:00,
2013-05-15 03:25:00,37.4,34.0,30.07,SW,221,0.0,0.0,86,0.00,,,0.00,weatherlink.com 1.10,2013-05-15 07:25:00,
2013-05-15 03:42:00,37.2,33.0,30.07,SW,221,0.0,0.0,86,0.00,,,0.00,weatherlink.com 1.10,2013-05-15 07:42:00,
2013-05-15 03:57:00,37.0,34.0,30.07,SW,221,0.0,0.0,87,0.00,,,0.00,weatherlink.com 1.10,2013-05-15 07:57:00,
2013-05-15 04:12:00,37.2,34.0,30.07,SW,221,0.0,0.0,87,0.00,,,0.00,weatherlink.com 1.10,2013-05-15 08:12:00,
2013-05-15 04:27:00,37.4,34.0,30.06,SW,221,0.0,0.0,88,0.00,,,0.00,weatherlink.com 1.10,2013-05-15 08:27:00,
2013-05-15 04:42:00,37.9,35.0,30.06,SW,221,0.0,0.0,88,0.00,,,0.00,weatherlink.com 1.10,2013-05-15 08:42:00,
2013-05-15 04:59:00,38.2,35.0,30.06,SW,221,0.0,0.0,88,0.00,,,0.00,weatherlink.com 1.10,2013-05-15 08:59:00,
2013-05-15 05:13:00,38.3,35.0,30.06,SW,221,0.0,0.0,88,0.00,,,0.00,weatherlink.com 1.10,2013-05-15 09:13:00,
2013-05-15 05:28:00,38.0,35.0,30.06,SW,221,0.0,0.0,88,0.00,,,0.00,weatherlink.com 1.10,2013-05-15 09:28:00,
2013-05-15 05:44:00,37.5,34.0,30.06,SW,221,0.0,0.0,88,0.00,,,0.00,weatherlink.com 1.10,2013-05-15 09:44:00,
2013-05-15 05:58:00,37.5,34.0,30.07,SW,221,0.0,0.0,88,0.00,,,0.00,weatherlink.com 1.10,2013-05-15 09:58:00,
2013-05-15 06:14:00,38.2,35.0,30.07,SW,221,0.0,0.0,89,0.00,,,0.00,weatherlink.com 1.10,2013-05-15 10:14:00,
2013-05-15 06:30:00,38.9,36.0,30.06,SW,221,0.0,0.0,89,0.00,,,0.00,weatherlink.com 1.10,2013-05-15 10:30:00,
2013-05-15 06:45:00,39.8,37.0,30.06,SW,221,0.0,0.0,89,0.00,,,0.00,weatherlink.com 1.10,2013-05-15 10:45:00,
2013-05-15 07:00:00,40.5,38.0,30.06,SW,221,0.0,0.0,89,0.00,,,0.00,weatherlink.com 1.10,2013-05-15 11:00:00,
2013-05-15 07:17:00,41.8,39.0,30.06,SW,221,0.0,0.0,90,0.00,,,0.00,weatherlink.com 1.10,2013-05-15 11:17:00,
2013-05-15 07:32:00,43.0,40.0,30.06,SW,221,0.0,0.0,89,0.00,,,0.00,weatherlink.com 1.10,2013-05-15 11:32:00,
2013-05-15 07:47:00,44.0,40.0,30.05,SW,221,0.0,1.0,87,0.00,,,0.00,weatherlink.com 1.10,2013-05-15 11:47:00,
2013-05-15 08:02:00,45.5,41.0,30.05,SW,219,0.0,1.0,83,0.00,,,0.00,weatherlink.com 1.10,2013-05-15 12:02:00,
2013-05-15 08:17:00,47.0,41.0,30.05,SW,219,0.0,1.0,79,0.00,,,0.00,weatherlink.com 1.10,2013-05-15 12:17:00,
2013-05-15 08:33:00,49.5,41.0,30.04,SSE,157,0.0,2.0,73,0.00,,,0.00,weatherlink.com 1.10,2013-05-15 12:33:00,
2013-05-15 08:48:00,51.0,42.0,30.03,South,169,0.0,2.0,70,0.00,,,0.00,weatherlink.com 1.10,2013-05-15 12:48:00,
2013-05-15 09:19:00,54.1,42.0,30.03,SSE,163,0.0,3.0,65,0.00,,,0.00,weatherlink.com 1.10,2013-05-15 13:19:00,
2013-05-15 10:20:00,58.7,41.0,30.00,South,189,0.0,7.0,53,0.00,,,0.00,weatherlink.com 1.10,2013-05-15 14:20:00,
2013-05-15 10:35:00,59.4,42.0,30.00,WSW,238,0.0,5.0,52,0.00,,,0.00,weatherlink.com 1.10,2013-05-15 14:35:00,
2013-05-15 11:06:00,60.5,44.0,30.00,NW,325,0.0,5.0,54,0.00,,,0.00,weatherlink.com 1.10,2013-05-15 15:06:00,
2013-05-15 11:22:00,58.9,43.0,30.01,South,180,0.0,6.0,55,0.00,,,0.00,weatherlink.com 1.10,2013-05-15 15:22:00,
2013-05-15 11:37:00,57.7,46.0,30.00,SW,214,1.0,3.0,65,0.00,,,0.00,weatherlink.com 1.10,2013-05-15 15:37:00,
2013-05-15 11:52:00,56.0,46.0,29.99,SSE,161,0.0,4.0,68,0.00,,,0.00,weatherlink.com 1.10,2013-05-15 15:52:00,
2013-05-15 12:24:00,55.3,45.0,29.99,SSE,160,0.0,3.0,69,0.00,,,0.00,weatherlink.com 1.10,2013-05-15 16:24:00,
2013-05-15 12:38:00,54.5,46.0,29.98,SW,214,1.0,5.0,73,0.01,,,0.01,weatherlink.com 1.10,2013-05-15 16:38:00,
2013-05-15 12:53:00,53.2,47.0,29.92,SE,134,0.0,3.0,79,0.03,,,0.03,weatherlink.com 1.10,2013-05-15 16:53:00,
2013-05-15 13:25:00,54.6,47.0,29.91,SSW,193,4.0,6.0,75,0.04,,,0.04,weatherlink.com 1.10,2013-05-15 17:25:00,
2013-05-15 13:40:00,56.5,48.0,29.90,South,187,1.0,6.0,74,0.03,,,0.04,weatherlink.com 1.10,2013-05-15 17:40:00,
2013-05-15 13:55:00,58.3,48.0,29.90,SSW,195,5.0,11.0,68,0.01,,,0.04,weatherlink.com 1.10,2013-05-15 17:55:00,
2013-05-15 14:10:00,58.3,48.0,29.88,SE,138,4.0,7.0,69,0.00,,,0.04,weatherlink.com 1.10,2013-05-15 18:10:00,
2013-05-15 14:25:00,57.5,50.0,29.88,SE,136,2.0,9.0,76,0.00,,,0.04,weatherlink.com 1.10,2013-05-15 18:25:00,
2013-05-15 14:42:00,59.8,51.0,29.87,South,183,4.0,8.0,73,0.00,,,0.04,weatherlink.com 1.10,2013-05-15 18:42:00,
2013-05-15 14:57:00,61.8,51.0,29.86,South,171,4.0,7.0,69,0.00,,,0.04,weatherlink.com 1.10,2013-05-15 18:57:00,
2013-05-15 15:12:00,61.1,50.0,29.84,SSE,159,4.0,15.0,68,0.00,,,0.04,weatherlink.com 1.10,2013-05-15 19:12:00,
2013-05-15 15:27:00,62.7,51.0,29.82,South,170,1.0,10.0,66,0.00,,,0.04,weatherlink.com 1.10,2013-05-15 19:27:00,
2013-05-15 15:44:00,63.8,52.0,29.79,South,188,0.0,8.0,65,0.00,,,0.04,weatherlink.com 1.10,2013-05-15 19:44:00,
2013-05-15 15:58:00,62.6,50.0,29.79,SSE,149,0.0,8.0,64,0.00,,,0.04,weatherlink.com 1.10,2013-05-15 19:58:00,
2013-05-15 16:15:00,62.1,51.0,29.77,WSW,248,0.0,10.0,66,0.00,,,0.04,weatherlink.com 1.10,2013-05-15 20:15:00,
2013-05-15 16:28:00,63.1,51.0,29.76,SW,215,0.0,8.0,65,0.00,,,0.04,weatherlink.com 1.10,2013-05-15 20:28:00,
2013-05-15 16:44:00,63.0,51.0,29.76,WSW,252,0.0,6.0,65,0.00,,,0.04,weatherlink.com 1.10,2013-05-15 20:44:00,
2013-05-15 17:45:00,62.5,51.0,29.76,SSW,194,1.0,4.0,66,0.00,,,0.04,weatherlink.com 1.10,2013-05-15 21:45:00,
2013-05-15 18:00:00,62.4,51.0,29.75,South,182,3.0,6.0,66,0.00,,,0.04,weatherlink.com 1.10,2013-05-15 22:00:00,
2013-05-15 18:15:00,62.3,51.0,29.74,WSW,243,0.0,4.0,66,0.00,,,0.04,weatherlink.com 1.10,2013-05-15 22:15:00,
2013-05-15 18:32:00,62.0,51.0,29.73,North,360,1.0,4.0,68,0.00,,,0.04,weatherlink.com 1.10,2013-05-15 22:32:00,
2013-05-15 18:47:00,61.6,51.0,29.73,South,171,0.0,3.0,68,0.00,,,0.04,weatherlink.com 1.10,2013-05-15 22:47:00,
2013-05-15 19:02:00,61.2,51.0,29.72,SW,225,0.0,3.0,69,0.00,,,0.04,weatherlink.com 1.10,2013-05-15 23:02:00,
2013-05-15 19:17:00,60.7,50.0,29.72,SE,132,3.0,3.0,69,0.00,,,0.04,weatherlink.com 1.10,2013-05-15 23:17:00,
2013-05-15 19:33:00,59.9,50.0,29.71,West,259,0.0,3.0,70,0.00,,,0.04,weatherlink.com 1.10,2013-05-15 23:33:00,
2013-05-15 19:48:00,59.2,50.0,29.71,SSW,211,0.0,3.0,72,0.00,,,0.04,weatherlink.com 1.10,2013-05-15 23:48:00,
2013-05-15 20:04:00,58.5,50.0,29.72,WSW,248,0.0,1.0,74,0.00,,,0.04,weatherlink.com 1.10,2013-05-16 00:04:00,
2013-05-15 20:19:00,57.8,50.0,29.72,SE,144,0.0,2.0,75,0.00,,,0.04,weatherlink.com 1.10,2013-05-16 00:19:00,
2013-05-15 20:33:00,57.4,50.0,29.73,SE,144,0.0,0.0,76,0.00,,,0.04,weatherlink.com 1.10,2013-05-16 00:33:00,
2013-05-15 20:50:00,56.7,50.0,29.73,SE,144,0.0,0.0,77,0.00,,,0.04,weatherlink.com 1.10,2013-05-16 00:50:00,
2013-05-15 21:05:00,56.1,49.0,29.74,SE,144,0.0,0.0,78,0.00,,,0.04,weatherlink.com 1.10,2013-05-16 01:05:00,
2013-05-15 21:20:00,55.5,49.0,29.74,SE,144,0.0,0.0,79,0.00,,,0.04,weatherlink.com 1.10,2013-05-16 01:20:00,
2013-05-15 21:35:00,54.9,49.0,29.74,SE,144,0.0,0.0,80,0.00,,,0.04,weatherlink.com 1.10,2013-05-16 01:35:00,
2013-05-15 21:51:00,54.2,49.0,29.74,SE,144,0.0,0.0,82,0.00,,,0.04,weatherlink.com 1.10,2013-05-16 01:51:00,
2013-05-15 22:37:00,52.9,49.0,29.75,SE,144,0.0,0.0,85,0.00,,,0.04,weatherlink.com 1.10,2013-05-16 02:37:00,
2013-05-15 22:52:00,52.8,49.0,29.74,SE,144,0.0,0.0,86,0.00,,,0.04,weatherlink.com 1.10,2013-05-16 02:52:00,
2013-05-15 23:07:00,52.9,49.0,29.74,SE,144,0.0,0.0,87,0.00,,,0.04,weatherlink.com 1.10,2013-05-16 03:07:00,
2013-05-15 23:22:00,53.9,51.0,29.74,SE,144,0.0,1.0,88,0.00,,,0.04,weatherlink.com 1.10,2013-05-16 03:22:00,
2013-05-15 23:38:00,54.5,51.0,29.73,SE,144,0.0,0.0,87,0.00,,,0.04,weatherlink.com 1.10,2013-05-16 03:38:00,
2013-05-15 23:53:00,54.8,51.0,29.74,SE,144,0.0,1.0,87,0.00,,,0.04,weatherlink.com 1.10,2013-05-16 03:53:00,